createdAt,value
2023-02-16T00:02:11.529Z,25.23
2023-02-16T00:04:38.270Z,26.30
2023-02-16T00:07:04.952Z,25.64
2023-02-16T00:09:31.642Z,24.39
2023-02-16T00:11:58.418Z,24.71
2023-02-16T00:14:25.309Z,23.19
2023-02-16T00:16:56.057Z,24.00
2023-02-16T00:19:23.891Z,23.54
2023-02-16T00:21:51.946Z,23.72
2023-02-16T00:24:18.686Z,24.25
2023-02-16T00:26:45.462Z,23.65
2023-02-16T00:29:23.981Z,22.98
2023-02-16T00:31:52.288Z,22.89
2023-02-16T00:34:34.033Z,23.30
2023-02-16T00:37:05.168Z,22.15
2023-02-16T00:39:31.892Z,22.16
2023-02-16T00:42:01.288Z,21.44
2023-02-16T00:44:36.302Z,21.24
2023-02-16T00:47:27.508Z,21.35
2023-02-16T00:49:54.756Z,21.45
2023-02-16T00:52:38.048Z,21.12
2023-02-16T00:55:12.476Z,20.47
2023-02-16T00:57:41.101Z,20.19
2023-02-16T01:00:23.799Z,19.18
2023-02-16T01:02:51.618Z,18.70
2023-02-16T01:05:19.019Z,18.16
2023-02-16T01:07:45.867Z,17.64
2023-02-16T01:10:12.547Z,17.75
2023-02-16T01:12:39.305Z,17.15
2023-02-16T01:15:06.211Z,17.45
2023-02-16T01:17:33.320Z,16.78
2023-02-16T01:20:00.192Z,17.06
2023-02-16T01:22:27.313Z,16.53
2023-02-16T01:24:54.175Z,16.14
2023-02-16T01:27:21.216Z,16.96
2023-02-16T01:29:49.349Z,16.77
2023-02-16T01:32:16.167Z,16.08
2023-02-16T01:34:43.040Z,16.44
2023-02-16T01:37:15.895Z,16.30
2023-02-16T01:39:42.937Z,16.60
2023-02-16T01:42:47.752Z,15.57
2023-02-16T01:45:17.417Z,16.14
2023-02-16T01:47:55.995Z,15.98
2023-02-16T01:50:24.538Z,15.91
2023-02-16T01:53:04.414Z,16.21
2023-02-16T01:55:36.586Z,15.11
2023-02-16T01:58:34.945Z,15.84
2023-02-16T02:01:01.679Z,15.83
2023-02-16T02:03:33.520Z,15.72
2023-02-16T02:06:00.217Z,15.42
2023-02-16T02:08:35.568Z,15.40
2023-02-16T02:11:24.837Z,16.57
2023-02-16T02:13:54.842Z,16.16
2023-02-16T02:16:22.252Z,16.54
2023-02-16T02:18:49.802Z,16.33
2023-02-16T02:21:31.654Z,16.50
2023-02-16T02:24:32.481Z,16.53
2023-02-16T02:27:31.828Z,15.69
2023-02-16T02:30:23.038Z,16.06
2023-02-16T02:33:09.664Z,15.64
2023-02-16T02:35:51.506Z,15.75
2023-02-16T02:38:32.342Z,18.94
2023-02-16T02:41:30.799Z,15.13
2023-02-16T02:44:00.337Z,14.32
2023-02-16T02:46:29.650Z,14.74
2023-02-16T02:48:57.733Z,14.72
2023-02-16T02:51:24.749Z,14.45
2023-02-16T02:54:11.248Z,14.39
2023-02-16T02:56:37.993Z,14.77
2023-02-16T02:59:06.882Z,14.16
2023-02-16T03:01:33.654Z,14.53
2023-02-16T03:04:00.422Z,14.38
2023-02-16T03:06:29.769Z,14.59
2023-02-16T03:09:00.957Z,14.53
2023-02-16T03:11:27.962Z,15.13
2023-02-16T03:14:02.347Z,14.53
2023-02-16T03:16:32.740Z,14.76
2023-02-16T03:18:59.570Z,14.47
2023-02-16T03:21:26.490Z,14.82
2023-02-16T03:23:53.165Z,14.01
2023-02-16T03:26:20.024Z,14.66
2023-02-16T03:28:46.728Z,15.03
2023-02-16T03:31:22.148Z,14.29
2023-02-16T03:33:49.280Z,14.15
2023-02-16T03:36:15.998Z,13.37
2023-02-16T03:38:42.684Z,13.62
2023-02-16T03:41:09.381Z,14.17
2023-02-16T03:43:36.095Z,14.69
2023-02-16T03:46:02.875Z,13.98
2023-02-16T03:48:29.921Z,13.61
2023-02-16T03:50:56.676Z,14.11
2023-02-16T03:53:23.625Z,14.08
2023-02-16T03:55:50.346Z,13.57
2023-02-16T03:58:18.988Z,13.22
2023-02-16T04:00:46.946Z,13.38
2023-02-16T04:03:13.714Z,13.26
2023-02-16T04:05:40.389Z,12.65
2023-02-16T04:08:07.178Z,12.45
2023-02-16T04:10:34.811Z,13.05
2023-02-16T04:13:21.870Z,12.61
2023-02-16T04:16:01.137Z,12.43
2023-02-16T04:18:28.210Z,11.94
2023-02-16T04:20:55.957Z,11.99
2023-02-16T04:23:23.070Z,12.15
2023-02-16T04:25:50.149Z,11.39
2023-02-16T04:28:17.225Z,11.67
2023-02-16T04:30:44.048Z,11.79
2023-02-16T04:33:11.110Z,11.25
2023-02-16T04:35:38.197Z,10.36
2023-02-16T04:38:04.866Z,9.58
2023-02-16T04:40:31.938Z,10.14
2023-02-16T04:42:59.738Z,9.23
2023-02-16T04:45:26.987Z,8.70
2023-02-16T04:47:54.069Z,9.03
2023-02-16T04:50:20.783Z,8.99
2023-02-16T04:52:47.473Z,8.52
2023-02-16T04:55:14.164Z,8.90
2023-02-16T04:57:41.355Z,8.26
2023-02-16T05:00:09.054Z,8.24
2023-02-16T05:02:36.187Z,8.88
2023-02-16T05:05:02.892Z,8.45
2023-02-16T05:07:29.566Z,7.83
2023-02-16T05:09:56.330Z,7.25
2023-02-16T05:12:24.133Z,7.42
2023-02-16T05:14:50.825Z,7.47
2023-02-16T05:17:19.281Z,7.66
2023-02-16T05:19:48.024Z,7.09
2023-02-16T05:22:14.827Z,7.18
2023-02-16T05:24:41.622Z,7.45
2023-02-16T05:27:19.720Z,7.48
2023-02-16T05:29:46.472Z,7.46
2023-02-16T05:32:13.340Z,7.43
2023-02-16T05:34:40.143Z,7.59
2023-02-16T05:37:06.904Z,8.04
2023-02-16T05:39:34.634Z,7.82
2023-02-16T05:42:01.359Z,8.12
2023-02-16T05:44:28.133Z,8.15
2023-02-16T05:46:55.676Z,11.23
2023-02-16T05:49:22.384Z,11.47
2023-02-16T05:51:50.546Z,7.52
2023-02-16T05:54:17.330Z,7.71
2023-02-16T05:56:48.416Z,7.63
2023-02-16T05:59:15.216Z,7.89
2023-02-16T06:01:43.137Z,8.63
2023-02-16T06:04:10.442Z,9.50
2023-02-16T06:06:37.967Z,9.10
2023-02-16T06:09:05.786Z,8.72
2023-02-16T06:11:32.556Z,8.49
2023-02-16T06:13:59.630Z,8.92
2023-02-16T06:16:26.788Z,8.55
2023-02-16T06:18:53.977Z,8.13
2023-02-16T06:21:21.328Z,8.56
2023-02-16T06:23:48.186Z,8.23
2023-02-16T06:26:15.654Z,8.28
2023-02-16T06:28:42.686Z,8.36
2023-02-16T06:31:20.712Z,7.83
2023-02-16T06:33:48.102Z,7.75
2023-02-16T06:36:16.539Z,8.22
2023-02-16T06:38:43.798Z,7.50
2023-02-16T06:41:11.639Z,7.72
2023-02-16T06:43:41.441Z,7.44
2023-02-16T06:46:11.097Z,8.13
2023-02-16T06:48:38.194Z,7.74
2023-02-16T06:51:05.313Z,8.16
2023-02-16T06:53:32.266Z,7.42
2023-02-16T06:55:59.340Z,8.21
2023-02-16T06:58:26.498Z,7.78
2023-02-16T07:00:55.348Z,7.60
2023-02-16T07:03:22.132Z,7.87
2023-02-16T07:05:49.462Z,8.08
2023-02-16T07:08:16.618Z,8.32
2023-02-16T07:10:49.981Z,8.17
2023-02-16T07:13:17.622Z,8.08
2023-02-16T07:15:45.800Z,9.06
2023-02-16T07:18:12.801Z,8.28
2023-02-16T07:20:39.978Z,7.84
2023-02-16T07:23:07.738Z,8.05
2023-02-16T07:25:39.861Z,7.52
2023-02-16T07:28:06.881Z,7.61
2023-02-16T07:30:34.427Z,8.09
2023-02-16T07:33:01.363Z,8.25
2023-02-16T07:35:28.443Z,7.82
2023-02-16T07:37:55.241Z,7.49
2023-02-16T07:40:22.520Z,9.54
2023-02-16T07:42:49.250Z,8.10
2023-02-16T07:45:18.298Z,7.75
2023-02-16T07:47:46.326Z,8.30
2023-02-16T07:50:14.270Z,8.36
2023-02-16T07:52:44.789Z,9.20
2023-02-16T07:55:11.989Z,9.39
2023-02-16T07:57:39.403Z,9.33
2023-02-16T08:00:08.558Z,10.21
2023-02-16T08:02:35.782Z,11.19
2023-02-16T08:05:02.670Z,10.92
2023-02-16T08:07:29.485Z,11.04
2023-02-16T08:09:58.994Z,10.82
2023-02-16T08:12:28.460Z,10.44
2023-02-16T08:14:55.769Z,10.63
2023-02-16T08:17:25.501Z,10.91
2023-02-16T08:19:55.226Z,10.39
2023-02-16T08:22:22.302Z,10.09
2023-02-16T08:24:49.054Z,10.62
2023-02-16T08:27:15.885Z,11.40
2023-02-16T08:29:43.118Z,11.65
2023-02-16T08:32:14.131Z,11.75
2023-02-16T08:34:43.703Z,11.09
2023-02-16T08:37:11.942Z,12.12
2023-02-16T08:39:39.160Z,12.35
2023-02-16T08:42:06.708Z,12.03
2023-02-16T08:44:37.176Z,13.69
2023-02-16T08:47:03.862Z,14.39
2023-02-16T08:49:31.665Z,13.98
2023-02-16T08:52:05.706Z,13.72
2023-02-16T08:54:33.097Z,13.72
2023-02-16T08:57:00.224Z,13.76
2023-02-16T08:59:28.738Z,14.57
2023-02-16T09:01:58.446Z,14.22
2023-02-16T09:04:25.327Z,14.50
2023-02-16T09:06:52.143Z,15.58
2023-02-16T09:09:19.568Z,16.06
2023-02-16T09:11:46.324Z,16.33
2023-02-16T09:14:19.203Z,16.29
2023-02-16T09:16:47.300Z,17.52
2023-02-16T09:19:33.872Z,16.85
2023-02-16T09:22:05.878Z,17.78
2023-02-16T09:24:41.914Z,18.68
2023-02-16T09:27:09.374Z,20.13
2023-02-16T09:29:37.143Z,21.68
2023-02-16T09:32:04.605Z,23.26
2023-02-16T09:34:32.439Z,23.52
2023-02-16T09:36:59.728Z,24.87
2023-02-16T09:39:27.227Z,24.82
2023-02-16T09:42:21.800Z,23.95
2023-02-16T09:45:05.061Z,23.13
2023-02-16T09:47:40.864Z,24.08
2023-02-16T09:53:36.361Z,25.69
2023-02-16T09:56:10.762Z,25.07
2023-02-16T09:58:48.554Z,24.24
2023-02-16T10:01:19.198Z,23.92
2023-02-16T10:04:31.294Z,24.01
2023-02-16T10:07:24.596Z,23.85
2023-02-16T10:09:53.457Z,24.19
2023-02-16T10:12:26.985Z,24.34
2023-02-16T10:15:01.026Z,24.00
2023-02-16T10:17:41.004Z,25.06
2023-02-16T10:20:17.883Z,25.49
2023-02-16T10:23:26.074Z,27.09
2023-02-16T10:26:08.988Z,26.98
2023-02-16T10:28:53.169Z,26.29
2023-02-16T10:31:40.866Z,24.37
2023-02-16T10:34:29.740Z,24.51
2023-02-16T10:37:27.689Z,27.40
2023-02-16T10:40:18.248Z,28.46
2023-02-16T10:43:14.165Z,28.13
2023-02-16T10:46:05.858Z,29.28
2023-02-16T10:48:33.590Z,27.95
2023-02-16T10:51:11.060Z,27.27
2023-02-16T10:53:49.859Z,29.96
2023-02-16T10:56:34.719Z,29.75
2023-02-16T10:59:01.454Z,28.19
2023-02-16T11:01:38.889Z,27.48
2023-02-16T11:04:06.873Z,26.70
2023-02-16T11:06:36.419Z,25.52
2023-02-16T11:09:04.614Z,23.68
2023-02-16T11:11:39.219Z,22.39
2023-02-16T11:14:20.385Z,21.30
2023-02-16T11:16:47.622Z,20.13
2023-02-16T11:19:20.694Z,18.13
2023-02-16T11:21:56.923Z,19.31
2023-02-16T11:24:26.749Z,17.96
2023-02-16T11:27:20.206Z,19.82
2023-02-16T11:29:52.062Z,21.81
2023-02-16T11:32:46.336Z,20.55
2023-02-16T11:35:16.254Z,22.79
2023-02-16T11:37:44.382Z,21.97
2023-02-16T11:40:23.486Z,21.25
2023-02-16T11:42:52.174Z,18.98
2023-02-16T11:45:32.863Z,18.36
2023-02-16T11:48:14.735Z,17.75
2023-02-16T11:50:58.645Z,17.17
2023-02-16T11:53:33.198Z,17.59
2023-02-16T11:56:12.844Z,16.95
2023-02-16T11:58:42.614Z,15.44
2023-02-16T12:01:20.471Z,17.47
2023-02-16T12:04:05.328Z,17.86
2023-02-16T12:07:04.003Z,18.76
2023-02-16T12:09:50.066Z,19.82
2023-02-16T12:12:19.376Z,19.30
2023-02-16T12:15:16.582Z,19.61
2023-02-16T12:17:45.036Z,21.23
2023-02-16T12:21:05.545Z,19.01
2023-02-16T12:23:55.290Z,18.78
2023-02-16T12:26:31.758Z,19.16
2023-02-16T12:29:23.893Z,18.85
2023-02-16T12:32:09.387Z,19.48
2023-02-16T12:35:23.496Z,20.77
2023-02-16T12:38:38.138Z,20.47
2023-02-16T12:41:26.588Z,20.45
2023-02-16T12:43:55.955Z,20.25
2023-02-16T12:46:39.883Z,20.91
2023-02-16T12:49:14.489Z,19.10
2023-02-16T12:52:10.880Z,18.80
2023-02-16T12:54:49.647Z,18.71
2023-02-16T12:57:19.637Z,17.81
2023-02-16T12:59:54.453Z,16.75
2023-02-16T13:02:41.873Z,16.45
2023-02-16T13:05:16.422Z,16.50
2023-02-16T13:07:45.057Z,15.13
2023-02-16T13:10:21.102Z,14.50
2023-02-16T13:12:54.521Z,13.92
2023-02-16T13:15:36.097Z,13.73
2023-02-16T13:18:39.692Z,14.07
2023-02-16T13:21:11.637Z,13.91
2023-02-16T13:23:42.352Z,14.67
2023-02-16T13:26:18.959Z,14.35
2023-02-16T13:29:08.989Z,14.12
2023-02-16T13:32:21.039Z,12.60
2023-02-16T13:35:12.658Z,12.96
2023-02-16T13:38:26.747Z,13.97
2023-02-16T13:41:11.897Z,12.86
2023-02-16T13:43:43.154Z,13.62
2023-02-16T13:46:20.738Z,12.48
2023-02-16T13:48:48.798Z,13.64
2023-02-16T13:51:17.874Z,12.47
2023-02-16T13:54:00.076Z,10.99
2023-02-16T13:56:29.828Z,11.15
2023-02-16T13:59:00.561Z,9.02
2023-02-16T14:01:34.363Z,8.87
2023-02-16T14:04:03.120Z,8.89
2023-02-16T14:06:31.155Z,9.50
2023-02-16T14:09:12.934Z,9.07
2023-02-16T14:11:51.859Z,9.54
2023-02-16T14:14:40.789Z,9.32
2023-02-16T14:17:19.900Z,9.78
2023-02-16T14:19:50.071Z,9.59
2023-02-16T14:22:19.643Z,10.01
2023-02-16T14:24:54.749Z,10.13
2023-02-16T14:27:43.709Z,10.82
2023-02-16T14:30:42.676Z,10.85
2023-02-16T14:33:41.373Z,10.73
2023-02-16T14:36:32.781Z,10.50
2023-02-16T14:38:59.720Z,10.89
2023-02-16T14:41:34.526Z,10.40
2023-02-16T14:44:24.142Z,10.13
2023-02-16T14:47:09.380Z,11.01
2023-02-16T14:50:04.502Z,11.72
2023-02-16T14:52:52.504Z,11.59
2023-02-16T14:55:59.941Z,12.27
2023-02-16T14:58:43.809Z,12.63
2023-02-16T15:01:15.467Z,13.25
2023-02-16T15:03:46.476Z,12.91
2023-02-16T15:06:21.856Z,13.60
2023-02-16T15:09:06.103Z,13.83
2023-02-16T15:11:37.247Z,13.60
2023-02-16T15:14:05.881Z,13.97
2023-02-16T15:16:34.006Z,13.72
2023-02-16T15:19:03.155Z,14.24
2023-02-16T15:21:29.836Z,14.22
2023-02-16T15:23:58.464Z,15.46
2023-02-16T15:26:27.425Z,15.05
2023-02-16T15:28:58.649Z,16.03
2023-02-16T15:31:32.235Z,16.14
2023-02-16T15:34:05.013Z,15.73
2023-02-16T15:36:39.343Z,15.93
2023-02-16T15:39:14.018Z,16.67
2023-02-16T15:41:43.593Z,16.43
2023-02-16T15:44:28.927Z,16.00
2023-02-16T15:47:08.875Z,15.87
2023-02-16T15:49:36.737Z,15.46
2023-02-16T15:52:12.199Z,16.38
2023-02-16T15:54:39.603Z,15.26
2023-02-16T15:57:31.906Z,15.26
2023-02-16T16:00:00.522Z,15.74
2023-02-16T16:02:38.805Z,16.04
2023-02-16T16:05:19.838Z,16.45
2023-02-16T16:07:47.817Z,16.68
2023-02-16T16:10:26.298Z,16.53
2023-02-16T16:12:54.560Z,17.64
2023-02-16T16:15:24.738Z,16.66
2023-02-16T16:17:52.614Z,16.24
2023-02-16T16:20:38.229Z,15.72
2023-02-16T16:23:38.461Z,15.45
2023-02-16T16:26:19.658Z,15.22
2023-02-16T16:28:49.478Z,15.37
2023-02-16T16:31:45.714Z,14.83
2023-02-16T16:34:30.480Z,15.16
2023-02-16T16:36:58.265Z,15.19
2023-02-16T16:39:37.973Z,15.11
2023-02-16T16:42:29.971Z,15.61
2023-02-16T16:45:06.316Z,16.17
2023-02-16T16:47:42.164Z,16.29
2023-02-16T16:50:20.839Z,14.97
2023-02-16T16:52:53.789Z,15.01
2023-02-16T16:55:30.813Z,14.80
2023-02-16T16:58:05.504Z,15.25
2023-02-16T17:00:33.930Z,15.87
2023-02-16T17:03:01.762Z,15.16
2023-02-16T17:05:29.347Z,15.71
2023-02-16T17:07:56.327Z,15.81
2023-02-16T17:10:25.565Z,15.52
2023-02-16T17:12:55.030Z,15.32
2023-02-16T17:15:54.352Z,14.94
2023-02-16T17:18:21.808Z,14.73
2023-02-16T17:20:51.570Z,15.27
2023-02-16T17:23:19.681Z,14.94
2023-02-16T17:25:50.139Z,14.76
2023-02-16T17:28:17.367Z,16.65
2023-02-16T17:30:44.129Z,17.49
2023-02-16T17:33:10.869Z,17.69
2023-02-16T17:35:38.214Z,18.12
2023-02-16T17:38:18.106Z,18.92
2023-02-16T17:40:47.618Z,17.85
2023-02-16T17:43:14.458Z,17.86
2023-02-16T17:45:42.914Z,18.08
2023-02-16T17:48:26.501Z,17.81
2023-02-16T17:50:54.724Z,17.56
2023-02-16T17:53:23.160Z,17.99
2023-02-16T17:55:50.860Z,17.52
2023-02-16T17:58:17.681Z,15.86
2023-02-16T18:00:44.664Z,16.41
2023-02-16T18:03:11.337Z,17.19
2023-02-16T18:05:38.242Z,17.21
2023-02-16T18:08:05.005Z,23.93
2023-02-16T18:10:47.795Z,27.05
2023-02-16T18:13:14.517Z,24.31
2023-02-16T18:15:42.756Z,17.17
2023-02-16T18:18:09.477Z,17.52
2023-02-16T18:20:36.633Z,16.61
2023-02-16T18:23:03.504Z,16.51
2023-02-16T18:25:31.843Z,16.98
2023-02-16T18:27:59.267Z,16.35
2023-02-16T18:30:26.161Z,17.35
2023-02-16T18:32:52.913Z,15.64
2023-02-16T18:35:19.805Z,15.91
2023-02-16T18:37:46.756Z,17.40
2023-02-16T18:40:16.142Z,19.52
2023-02-16T18:42:42.840Z,16.47
2023-02-16T18:45:09.875Z,16.10
2023-02-16T18:47:36.619Z,19.95
2023-02-16T18:50:04.628Z,18.52
2023-02-16T18:52:33.533Z,19.30
2023-02-16T18:55:00.621Z,28.51
2023-02-16T18:57:27.322Z,22.13
2023-02-16T18:59:54.530Z,19.50
2023-02-16T19:02:21.576Z,19.83
2023-02-16T19:04:48.394Z,21.11
2023-02-16T19:07:15.537Z,19.77
2023-02-16T19:09:42.292Z,20.57
2023-02-16T19:12:09.764Z,20.64
2023-02-16T19:14:40.870Z,20.68
2023-02-16T19:17:08.051Z,20.54
2023-02-16T19:19:35.928Z,20.77
2023-02-16T19:22:03.222Z,20.11
2023-02-16T19:24:30.050Z,20.05
2023-02-16T19:26:57.447Z,19.70
2023-02-16T19:29:24.145Z,19.81
2023-02-16T19:31:51.110Z,20.19
2023-02-16T19:34:18.770Z,19.81
2023-02-16T19:36:52.610Z,20.48
2023-02-16T19:39:19.888Z,30.25
2023-02-16T19:41:46.602Z,26.01
2023-02-16T19:44:14.621Z,24.88
2023-02-16T19:46:41.508Z,29.20
2023-02-16T19:49:08.427Z,30.16
2023-02-16T19:51:35.554Z,23.49
2023-02-16T19:54:02.254Z,24.49
2023-02-16T19:56:29.313Z,22.32
2023-02-16T19:58:57.093Z,23.04
2023-02-16T20:01:24.761Z,22.60
2023-02-16T20:03:51.792Z,24.11
2023-02-16T20:06:22.766Z,26.85
2023-02-16T20:08:50.398Z,23.78
2023-02-16T20:11:17.966Z,23.16
2023-02-16T20:13:46.373Z,22.51
2023-02-16T20:16:14.089Z,22.62
2023-02-16T20:18:41.305Z,21.53
2023-02-16T20:21:10.513Z,21.70
2023-02-16T20:23:37.431Z,21.62
2023-02-16T20:26:10.343Z,21.09
2023-02-16T20:28:37.580Z,20.62
2023-02-16T20:31:09.458Z,20.61
2023-02-16T20:33:37.209Z,22.10
2023-02-16T20:36:04.882Z,21.37
2023-02-16T20:38:32.163Z,21.23
2023-02-16T20:40:58.855Z,21.48
2023-02-16T20:43:26.399Z,22.08
2023-02-16T20:45:53.106Z,21.87
2023-02-16T20:48:20.093Z,22.51
2023-02-16T20:50:52.203Z,20.99
2023-02-16T20:53:18.965Z,21.53
2023-02-16T20:55:45.864Z,21.63
2023-02-16T20:58:12.610Z,20.76
2023-02-16T21:00:39.378Z,20.96
2023-02-16T21:03:07.003Z,20.91
2023-02-16T21:05:34.797Z,22.06
2023-02-16T21:08:03.369Z,21.77
2023-02-16T21:10:30.551Z,21.76
2023-02-16T21:12:57.286Z,21.08
2023-02-16T21:15:25.237Z,21.54
2023-02-16T21:17:52.016Z,21.34
2023-02-16T21:20:20.260Z,21.31
2023-02-16T21:22:46.975Z,21.83
2023-02-16T21:25:13.884Z,21.53
2023-02-16T21:27:40.801Z,21.27
2023-02-16T21:30:11.171Z,21.79
2023-02-16T21:32:37.970Z,21.15
2023-02-16T21:35:05.082Z,21.76
2023-02-16T21:37:34.677Z,21.62
2023-02-16T21:40:01.854Z,22.36
2023-02-16T21:42:29.332Z,20.73
2023-02-16T21:44:56.678Z,20.51
2023-02-16T21:47:26.373Z,21.47
2023-02-16T21:49:53.663Z,21.77
2023-02-16T21:52:20.714Z,21.36
2023-02-16T21:54:47.949Z,20.36
2023-02-16T21:57:18.230Z,20.04
2023-02-16T21:59:45.087Z,20.27
2023-02-16T22:02:12.932Z,19.44
2023-02-16T22:04:42.303Z,19.11
2023-02-16T22:07:09.421Z,19.23
2023-02-16T22:09:39.761Z,18.14
2023-02-16T22:12:06.901Z,17.95
2023-02-16T22:14:33.853Z,17.96
2023-02-16T22:17:02.084Z,18.81
2023-02-16T22:19:29.302Z,18.30
2023-02-16T22:21:56.382Z,18.02
2023-02-16T22:24:25.972Z,17.94
2023-02-16T22:26:52.682Z,17.49
2023-02-16T22:29:19.773Z,17.15
2023-02-16T22:31:48.330Z,16.73
2023-02-16T22:34:17.226Z,16.75
2023-02-16T22:36:45.187Z,16.84
2023-02-16T22:39:16.994Z,16.43
2023-02-16T22:41:43.864Z,16.89
2023-02-16T22:44:10.709Z,16.80
2023-02-16T22:46:39.706Z,16.76
2023-02-16T22:49:06.764Z,16.61
2023-02-16T22:51:34.045Z,16.75
2023-02-16T22:54:01.186Z,16.45
2023-02-16T22:56:28.100Z,17.44
2023-02-16T22:58:57.605Z,17.41
2023-02-16T23:01:25.469Z,18.39
2023-02-16T23:03:53.538Z,17.88
2023-02-16T23:06:24.142Z,17.67
2023-02-16T23:08:56.604Z,16.34
2023-02-16T23:11:23.457Z,15.17
2023-02-16T23:13:50.242Z,15.67
2023-02-16T23:16:18.493Z,16.61
2023-02-16T23:18:48.227Z,15.80
2023-02-16T23:21:30.162Z,15.75
2023-02-16T23:23:58.006Z,15.67
2023-02-16T23:26:26.724Z,15.30
2023-02-16T23:28:54.700Z,14.62
2023-02-16T23:31:24.373Z,13.61
2023-02-16T23:33:51.513Z,14.05
2023-02-16T23:36:18.594Z,14.83
2023-02-16T23:38:45.302Z,15.45
2023-02-16T23:41:13.233Z,16.93
2023-02-16T23:43:42.377Z,16.95
2023-02-16T23:46:12.557Z,16.87
2023-02-16T23:48:47.002Z,16.59
2023-02-16T23:51:15.891Z,16.33
2023-02-16T23:53:42.690Z,15.65
2023-02-16T23:56:12.677Z,16.10
2023-02-16T23:58:40.187Z,15.53
